createdAt,value
2018-12-25T00:00:15.652Z,6.40
2018-12-25T00:00:51.069Z,6.20
2018-12-25T00:01:26.106Z,6.80
2018-12-25T00:02:01.523Z,6.80
2018-12-25T00:02:36.607Z,5.80
2018-12-25T00:03:12.309Z,6.40
2018-12-25T00:04:07.483Z,6.70
2018-12-25T00:04:42.883Z,6.00
2018-12-25T00:05:18.235Z,6.60
2018-12-25T00:05:53.636Z,7.00
2018-12-25T00:06:28.923Z,6.60
2018-12-25T00:07:04.040Z,6.80
2018-12-25T00:07:39.336Z,6.50
2018-12-25T00:08:14.851Z,5.90
2018-12-25T00:08:50.428Z,6.00
2018-12-25T00:09:25.754Z,6.30
2018-12-25T00:10:01.495Z,6.70
2018-12-25T00:10:36.795Z,6.30
2018-12-25T00:11:12.214Z,5.70
2018-12-25T00:11:47.698Z,6.30
2018-12-25T00:12:23.306Z,6.10
2018-12-25T00:12:58.922Z,6.20
2018-12-25T00:13:34.296Z,6.70
2018-12-25T00:14:09.514Z,6.90
2018-12-25T00:14:44.711Z,6.10
2018-12-25T00:15:20.149Z,6.80
2018-12-25T00:15:55.659Z,6.60
2018-12-25T00:16:31.346Z,6.20
2018-12-25T00:17:06.652Z,6.60
2018-12-25T00:17:41.939Z,6.20
2018-12-25T00:18:17.444Z,5.60
2018-12-25T00:18:52.833Z,5.80
2018-12-25T00:19:28.644Z,6.10
2018-12-25T00:20:03.857Z,6.10
2018-12-25T00:20:39.273Z,6.00
2018-12-25T00:21:14.578Z,6.60
2018-12-25T00:21:49.974Z,5.80
2018-12-25T00:22:24.978Z,6.10
2018-12-25T00:23:00.289Z,5.90
2018-12-25T00:23:35.569Z,6.90
2018-12-25T00:24:10.785Z,6.60
2018-12-25T00:24:46.063Z,6.10
2018-12-25T00:25:21.303Z,6.50
2018-12-25T00:25:56.498Z,6.60
2018-12-25T00:26:31.871Z,6.30
2018-12-25T00:27:07.285Z,6.70
2018-12-25T00:27:42.484Z,6.70
2018-12-25T00:28:17.805Z,6.80
2018-12-25T00:28:53.093Z,6.60
2018-12-25T00:29:28.619Z,6.20
2018-12-25T00:30:04.272Z,8.00
2018-12-25T00:30:39.656Z,7.00
2018-12-25T00:31:14.879Z,5.80
2018-12-25T00:31:50.375Z,5.70
2018-12-25T00:32:25.694Z,5.90
2018-12-25T00:33:00.988Z,6.30
2018-12-25T00:33:36.605Z,6.50
2018-12-25T00:34:12.020Z,6.70
2018-12-25T00:34:47.601Z,6.30
2018-12-25T00:35:23.231Z,6.90
2018-12-25T00:35:58.725Z,7.20
2018-12-25T00:36:33.957Z,6.40
2018-12-25T00:37:09.081Z,6.30
2018-12-25T00:37:44.276Z,6.10
2018-12-25T00:38:19.903Z,6.40
2018-12-25T00:38:55.196Z,5.70
2018-12-25T00:39:30.622Z,6.20
2018-12-25T00:40:06.069Z,6.30
2018-12-25T00:40:41.453Z,6.20
2018-12-25T00:41:16.668Z,6.80
2018-12-25T00:41:51.960Z,6.50
2018-12-25T00:42:27.541Z,6.80
2018-12-25T00:43:02.758Z,6.10
2018-12-25T00:43:37.942Z,6.50
2018-12-25T00:44:13.441Z,7.00
2018-12-25T00:44:48.658Z,6.40
2018-12-25T00:45:24.073Z,5.60
2018-12-25T00:45:59.253Z,5.70
2018-12-25T00:46:34.564Z,6.10
2018-12-25T00:47:10.018Z,6.30
2018-12-25T00:47:45.189Z,6.40
2018-12-25T00:48:20.887Z,6.20
2018-12-25T00:48:56.166Z,6.30
2018-12-25T00:49:31.463Z,6.40
2018-12-25T00:50:06.523Z,6.30
2018-12-25T00:50:41.810Z,6.50
2018-12-25T00:51:17.230Z,7.50
2018-12-25T00:51:52.546Z,6.90
2018-12-25T00:52:27.966Z,5.90
2018-12-25T00:53:03.161Z,5.60
2018-12-25T00:53:38.658Z,5.80
2018-12-25T00:54:14.064Z,5.90
2018-12-25T00:54:49.468Z,5.80
2018-12-25T00:55:24.693Z,5.60
2018-12-25T00:56:00.381Z,5.80
2018-12-25T00:56:35.888Z,6.00
2018-12-25T00:57:11.392Z,5.80
2018-12-25T00:57:46.486Z,6.20
2018-12-25T00:58:22.029Z,6.20
2018-12-25T00:58:57.218Z,6.30
2018-12-25T00:59:32.822Z,6.90
2018-12-25T01:00:08.236Z,6.30
2018-12-25T01:00:43.567Z,5.80
2018-12-25T01:01:19.083Z,6.40
2018-12-25T01:01:54.380Z,6.40
2018-12-25T01:02:29.781Z,6.20
2018-12-25T01:03:05.391Z,6.20
2018-12-25T01:03:40.688Z,5.80
2018-12-25T01:04:16.108Z,5.90
2018-12-25T01:04:51.296Z,6.00
2018-12-25T01:05:26.922Z,6.00
2018-12-25T01:06:02.333Z,6.00
2018-12-25T01:06:37.627Z,5.60
2018-12-25T01:07:12.846Z,5.70
2018-12-25T01:07:48.135Z,6.20
2018-12-25T01:08:23.535Z,6.60
2018-12-25T01:08:58.932Z,6.10
2018-12-25T01:09:34.143Z,5.60
2018-12-25T01:10:09.622Z,6.10
2018-12-25T01:10:44.920Z,5.00
2018-12-25T01:11:20.466Z,5.60
2018-12-25T01:11:56.170Z,6.00
2018-12-25T01:12:31.476Z,5.90
2018-12-25T01:13:06.678Z,5.90
2018-12-25T01:13:42.369Z,6.20
2018-12-25T01:14:17.749Z,5.80
2018-12-25T01:14:54.471Z,6.10
2018-12-25T01:15:28.588Z,6.20
2018-12-25T01:16:04.078Z,5.70
2018-12-25T01:16:39.718Z,5.30
2018-12-25T01:17:14.955Z,5.70
2018-12-25T01:17:50.307Z,5.90
2018-12-25T01:18:25.506Z,7.10
2018-12-25T01:19:00.797Z,6.40
2018-12-25T01:19:36.115Z,5.80
2018-12-25T01:20:11.301Z,5.30
2018-12-25T01:20:46.708Z,6.00
2018-12-25T01:21:21.939Z,5.90
2018-12-25T01:21:57.266Z,5.60
2018-12-25T01:22:32.867Z,5.80
2018-12-25T01:23:08.344Z,6.40
2018-12-25T01:23:43.475Z,6.00
2018-12-25T01:24:18.982Z,6.10
2018-12-25T01:24:54.278Z,5.90
2018-12-25T01:25:29.599Z,6.40
2018-12-25T01:26:04.992Z,6.50
2018-12-25T01:26:40.813Z,6.50
2018-12-25T01:27:16.069Z,6.00
2018-12-25T01:27:51.051Z,5.90
2018-12-25T01:28:26.663Z,6.00
2018-12-25T01:29:01.966Z,5.50
2018-12-25T01:29:37.476Z,5.60
2018-12-25T01:30:12.371Z,5.90
2018-12-25T01:30:47.398Z,6.10
2018-12-25T01:31:22.703Z,6.00
2018-12-25T01:31:57.982Z,5.70
2018-12-25T01:32:33.353Z,5.50
2018-12-25T01:33:08.641Z,5.80
2018-12-25T01:33:43.953Z,6.40
2018-12-25T01:34:19.253Z,6.10
2018-12-25T01:34:54.331Z,5.60
2018-12-25T01:35:29.734Z,5.90
2018-12-25T01:36:05.116Z,6.10
2018-12-25T01:36:40.421Z,5.60
2018-12-25T01:37:15.734Z,5.00
2018-12-25T01:37:51.246Z,5.40
2018-12-25T01:38:26.545Z,5.50
2018-12-25T01:39:01.737Z,5.60
2018-12-25T01:39:36.973Z,5.80
2018-12-25T01:40:12.245Z,5.30
2018-12-25T01:40:47.749Z,5.20
2018-12-25T01:41:23.056Z,5.30
2018-12-25T01:41:58.341Z,5.30
2018-12-25T01:42:33.453Z,5.50
2018-12-25T01:43:08.756Z,5.60
2018-12-25T01:43:44.062Z,5.80
2018-12-25T01:44:19.492Z,5.90
2018-12-25T01:44:54.784Z,5.60
2018-12-25T01:45:29.894Z,5.60
2018-12-25T01:46:05.683Z,5.70
2018-12-25T01:46:40.982Z,6.10
2018-12-25T01:47:16.597Z,6.00
2018-12-25T01:47:51.882Z,5.10
2018-12-25T01:48:27.326Z,5.30
2018-12-25T01:49:02.717Z,5.60
2018-12-25T01:49:37.826Z,5.80
2018-12-25T01:50:13.329Z,6.20
2018-12-25T01:50:48.837Z,6.20
2018-12-25T01:51:24.471Z,6.20
2018-12-25T01:51:59.843Z,5.70
2018-12-25T01:52:34.905Z,5.60
2018-12-25T01:53:10.193Z,5.70
2018-12-25T01:53:45.738Z,5.70
2018-12-25T01:54:21.231Z,5.60
2018-12-25T01:54:56.753Z,5.40
2018-12-25T01:55:31.846Z,6.10
2018-12-25T01:56:07.133Z,5.20
2018-12-25T01:56:42.656Z,5.90
2018-12-25T01:57:18.050Z,5.20
2018-12-25T01:57:53.271Z,4.80
2018-12-25T01:58:28.480Z,5.50
2018-12-25T01:59:03.795Z,5.30
2018-12-25T01:59:39.106Z,4.70
2018-12-25T02:00:14.083Z,5.30
2018-12-25T02:00:49.903Z,6.20
2018-12-25T02:01:25.208Z,6.00
2018-12-25T02:02:00.704Z,5.60
2018-12-25T02:02:35.915Z,6.00
2018-12-25T02:03:11.204Z,5.70
2018-12-25T02:03:46.618Z,5.70
2018-12-25T02:04:21.941Z,5.60
2018-12-25T02:04:57.358Z,5.70
2018-12-25T02:05:32.887Z,5.90
2018-12-25T02:06:08.576Z,6.80
2018-12-25T02:06:43.993Z,6.30
2018-12-25T02:07:19.186Z,5.10
2018-12-25T02:07:54.600Z,5.40
2018-12-25T02:08:29.917Z,5.80
2018-12-25T02:09:05.080Z,5.60
2018-12-25T02:09:40.225Z,5.70
2018-12-25T02:10:15.727Z,5.90
2018-12-25T02:10:50.841Z,6.10
2018-12-25T02:11:26.349Z,5.50
2018-12-25T02:12:01.822Z,5.50
2018-12-25T02:12:37.147Z,5.90
2018-12-25T02:13:12.131Z,5.80
2018-12-25T02:13:47.343Z,6.30
2018-12-25T02:14:23.025Z,5.50
2018-12-25T02:14:58.376Z,5.40
2018-12-25T02:15:33.581Z,5.80
2018-12-25T02:16:08.785Z,6.10
2018-12-25T02:16:43.923Z,5.80
2018-12-25T02:17:19.321Z,5.60
2018-12-25T02:17:54.917Z,6.10
2018-12-25T02:18:30.318Z,5.60
2018-12-25T02:19:06.109Z,5.90
2018-12-25T02:19:41.619Z,5.80
2018-12-25T02:20:16.959Z,6.00
2018-12-25T02:20:52.170Z,6.50
2018-12-25T02:21:27.179Z,5.40
2018-12-25T02:22:02.466Z,5.70
2018-12-25T02:22:37.677Z,6.30
2018-12-25T02:23:12.960Z,6.30
2018-12-25T02:23:48.260Z,5.80
2018-12-25T02:24:23.772Z,5.70
2018-12-25T02:24:59.046Z,5.20
2018-12-25T02:25:34.290Z,5.00
2018-12-25T02:26:09.405Z,4.90
2018-12-25T02:26:45.011Z,5.20
2018-12-25T02:27:20.522Z,5.40
2018-12-25T02:27:56.126Z,6.00
2018-12-25T02:28:31.429Z,5.70
2018-12-25T02:29:06.852Z,5.30
2018-12-25T02:29:42.250Z,5.80
2018-12-25T02:30:18.069Z,5.40
2018-12-25T02:30:53.812Z,5.30
2018-12-25T02:31:29.201Z,6.00
2018-12-25T02:32:04.519Z,6.20
2018-12-25T02:32:39.607Z,6.80
2018-12-25T02:33:15.215Z,6.00
2018-12-25T02:33:50.397Z,5.60
2018-12-25T02:34:25.612Z,6.00
2018-12-25T02:35:00.581Z,6.50
2018-12-25T02:35:36.075Z,6.60
2018-12-25T02:36:11.398Z,5.20
2018-12-25T02:36:46.725Z,5.30
2018-12-25T02:37:22.217Z,5.50
2018-12-25T02:37:57.494Z,5.50
2018-12-25T02:38:32.718Z,6.40
2018-12-25T02:39:08.112Z,7.00
2018-12-25T02:39:43.804Z,6.80
2018-12-25T02:40:19.104Z,6.30
2018-12-25T02:40:54.817Z,6.00
2018-12-25T02:41:30.114Z,6.10
2018-12-25T02:42:05.114Z,6.30
2018-12-25T02:42:40.207Z,6.10
2018-12-25T02:43:15.515Z,5.60
2018-12-25T02:43:51.020Z,6.00
2018-12-25T02:44:26.407Z,6.10
2018-12-25T02:45:01.828Z,6.90
2018-12-25T02:45:37.099Z,6.60
2018-12-25T02:46:12.318Z,6.60
2018-12-25T02:46:48.158Z,6.90
2018-12-25T02:47:23.253Z,6.30
2018-12-25T02:47:58.636Z,6.10
2018-12-25T02:48:33.918Z,7.20
2018-12-25T02:49:09.337Z,7.50
2018-12-25T02:49:50.200Z,7.00
2018-12-25T02:50:19.918Z,6.50
2018-12-25T02:50:55.299Z,5.90
2018-12-25T02:51:30.607Z,6.30
2018-12-25T02:52:05.717Z,6.30
2018-12-25T02:52:41.234Z,6.20
2018-12-25T02:53:16.424Z,6.10
2018-12-25T02:53:51.749Z,5.50
2018-12-25T02:54:26.939Z,5.80
2018-12-25T02:55:02.030Z,6.30
2018-12-25T02:55:37.349Z,6.40
2018-12-25T02:56:12.713Z,6.20
2018-12-25T02:56:48.326Z,6.60
2018-12-25T02:57:23.534Z,6.10
2018-12-25T02:57:59.325Z,6.00
2018-12-25T02:58:34.508Z,6.10
2018-12-25T02:59:09.764Z,6.50
2018-12-25T02:59:45.024Z,6.70
2018-12-25T03:00:20.338Z,6.50
2018-12-25T03:00:55.839Z,6.10
2018-12-25T03:01:31.226Z,6.00
2018-12-25T03:02:06.436Z,5.90
2018-12-25T03:02:41.641Z,5.90
2018-12-25T03:03:17.054Z,5.50
2018-12-25T03:03:52.584Z,5.50
2018-12-25T03:04:27.902Z,5.50
2018-12-25T03:05:03.204Z,5.70
2018-12-25T03:05:38.508Z,5.70
2018-12-25T03:06:14.686Z,6.40
2018-12-25T03:06:50.185Z,6.70
2018-12-25T03:07:25.563Z,6.20
2018-12-25T03:08:00.687Z,6.00
2018-12-25T03:08:35.796Z,6.30
2018-12-25T03:09:11.177Z,6.50
2018-12-25T03:09:46.375Z,6.70
2018-12-25T03:10:21.541Z,7.20
2018-12-25T03:10:56.647Z,7.40
2018-12-25T03:11:32.158Z,7.50
2018-12-25T03:12:07.470Z,7.20
2018-12-25T03:12:42.771Z,6.40
2018-12-25T03:13:18.212Z,5.90
2018-12-25T03:13:53.534Z,6.20
2018-12-25T03:14:28.819Z,6.20
2018-12-25T03:15:04.332Z,6.10
2018-12-25T03:15:39.707Z,6.20
2018-12-25T03:16:15.025Z,7.10
2018-12-25T03:16:50.112Z,7.30
2018-12-25T03:17:25.513Z,6.60
2018-12-25T03:18:00.803Z,6.70
2018-12-25T03:18:36.547Z,6.20
2018-12-25T03:19:12.124Z,6.00
2018-12-25T03:19:47.633Z,6.70
2018-12-25T03:20:22.937Z,7.20
2018-12-25T03:20:58.518Z,7.10
2018-12-25T03:21:33.934Z,5.90
2018-12-25T03:22:09.123Z,6.30
2018-12-25T03:22:44.419Z,6.70
2018-12-25T03:23:19.709Z,7.00
2018-12-25T03:23:54.947Z,6.80
2018-12-25T03:24:30.235Z,6.90
2018-12-25T03:25:05.830Z,7.00
2018-12-25T03:25:40.830Z,6.30
2018-12-25T03:26:15.944Z,7.10
2018-12-25T03:26:51.743Z,6.60
2018-12-25T03:27:26.633Z,6.70
2018-12-25T03:28:02.139Z,7.40
2018-12-25T03:28:37.521Z,7.40
2018-12-25T03:29:12.857Z,7.00
2018-12-25T03:29:48.039Z,7.20
2018-12-25T03:30:23.574Z,6.90
2018-12-25T03:30:59.248Z,6.90
2018-12-25T03:31:34.448Z,6.90
2018-12-25T03:32:09.634Z,5.90
2018-12-25T03:32:45.313Z,6.90
2018-12-25T03:33:20.739Z,7.30
2018-12-25T03:33:55.911Z,7.10
2018-12-25T03:34:31.751Z,7.10
2018-12-25T03:35:07.412Z,7.60
2018-12-25T03:35:43.116Z,7.40
2018-12-25T03:36:18.497Z,7.40
2018-12-25T03:36:53.595Z,7.20
2018-12-25T03:37:28.799Z,7.50
2018-12-25T03:38:04.188Z,7.10
2018-12-25T03:38:39.304Z,6.30
2018-12-25T03:39:14.384Z,6.80
2018-12-25T03:39:49.939Z,7.10
2018-12-25T03:40:25.227Z,7.30
2018-12-25T03:41:00.536Z,6.60
2018-12-25T03:41:35.789Z,7.10
2018-12-25T03:42:11.208Z,7.10
2018-12-25T03:42:46.824Z,6.80
2018-12-25T03:43:22.112Z,7.40
2018-12-25T03:43:57.521Z,7.30
2018-12-25T03:44:32.830Z,7.50
2018-12-25T03:45:08.285Z,7.20
2018-12-25T03:45:43.563Z,6.80
2018-12-25T03:46:19.085Z,6.90
2018-12-25T03:46:54.580Z,6.80
2018-12-25T03:47:29.869Z,7.80
2018-12-25T03:48:05.045Z,7.40
2018-12-25T03:48:40.341Z,7.60
2018-12-25T03:49:15.459Z,7.40
2018-12-25T03:49:51.451Z,7.60
2018-12-25T03:50:26.885Z,7.20
2018-12-25T03:51:02.360Z,7.40
2018-12-25T03:51:37.704Z,7.50
2018-12-25T03:52:13.084Z,7.50
2018-12-25T03:52:48.501Z,7.30
2018-12-25T03:53:23.991Z,7.60
2018-12-25T03:53:59.504Z,7.60
2018-12-25T03:54:34.625Z,7.80
2018-12-25T03:55:10.211Z,7.90
2018-12-25T03:55:45.645Z,8.00
2018-12-25T03:56:21.048Z,7.70
2018-12-25T03:56:56.653Z,6.90
2018-12-25T03:57:31.951Z,7.30
2018-12-25T03:58:07.349Z,7.70
2018-12-25T03:58:42.822Z,7.70
2018-12-25T03:59:18.043Z,7.80
2018-12-25T03:59:53.408Z,7.40
2018-12-25T04:00:28.907Z,7.10
2018-12-25T04:01:04.154Z,7.70
2018-12-25T04:01:39.523Z,7.60
2018-12-25T04:02:14.761Z,7.70
2018-12-25T04:02:50.035Z,7.90
2018-12-25T04:03:25.541Z,7.80
2018-12-25T04:04:00.939Z,7.50
2018-12-25T04:04:36.469Z,7.80
2018-12-25T04:05:11.643Z,8.90
2018-12-25T04:05:47.055Z,8.10
2018-12-25T04:06:22.293Z,8.30
2018-12-25T04:06:57.802Z,7.50
2018-12-25T04:07:32.933Z,8.10
2018-12-25T04:08:08.223Z,8.30
2018-12-25T04:08:43.829Z,7.90
2018-12-25T04:09:19.010Z,8.20
2018-12-25T04:09:54.516Z,8.80
2018-12-25T04:10:30.195Z,9.10
2018-12-25T04:11:05.604Z,8.10
2018-12-25T04:11:41.044Z,7.90
2018-12-25T04:12:16.643Z,8.10
2018-12-25T04:12:51.872Z,8.40
2018-12-25T04:13:27.160Z,8.10
2018-12-25T04:14:02.249Z,7.30
2018-12-25T04:14:37.335Z,8.30
2018-12-25T04:15:13.238Z,8.90
2018-12-25T04:15:48.522Z,8.00
2018-12-25T04:16:23.842Z,7.80
2018-12-25T04:16:59.286Z,8.10
2018-12-25T04:17:34.657Z,8.00
2018-12-25T04:18:10.437Z,7.60
2018-12-25T04:18:45.621Z,7.70
2018-12-25T04:19:20.913Z,8.80
2018-12-25T04:19:56.242Z,8.30
2018-12-25T04:20:31.557Z,7.80
2018-12-25T04:21:06.838Z,7.30
2018-12-25T04:21:42.542Z,8.00
2018-12-25T04:22:17.763Z,8.70
2018-12-25T04:22:53.068Z,7.50
2018-12-25T04:23:28.350Z,7.80
2018-12-25T04:24:03.677Z,7.50
2018-12-25T04:24:38.970Z,7.40
2018-12-25T04:25:14.560Z,8.00
2018-12-25T04:25:49.785Z,8.40
2018-12-25T04:26:25.268Z,8.80
2018-12-25T04:27:00.463Z,8.30
2018-12-25T04:27:36.090Z,7.60
2018-12-25T04:28:11.513Z,7.20
2018-12-25T04:28:46.794Z,7.70
2018-12-25T04:29:21.991Z,8.30
2018-12-25T04:29:57.314Z,8.10
2018-12-25T04:30:32.477Z,8.40
2018-12-25T04:31:07.819Z,8.00
2018-12-25T04:31:43.204Z,7.80
2018-12-25T04:32:18.215Z,8.60
2018-12-25T04:32:53.744Z,7.80
2018-12-25T04:33:28.942Z,7.40
2018-12-25T04:34:04.421Z,8.20
2018-12-25T04:34:39.724Z,8.30
2018-12-25T04:35:15.238Z,7.90
2018-12-25T04:35:50.719Z,8.10
2018-12-25T04:36:26.049Z,8.90
2018-12-25T04:37:01.310Z,8.50
2018-12-25T04:37:36.500Z,8.30
2018-12-25T04:38:11.914Z,8.60
2018-12-25T04:38:47.315Z,8.40
2018-12-25T04:39:22.702Z,7.70
2018-12-25T04:39:58.412Z,7.90
2018-12-25T04:40:33.500Z,8.10
2018-12-25T04:41:08.705Z,8.80
2018-12-25T04:41:44.303Z,8.50
2018-12-25T04:42:19.787Z,8.20
2018-12-25T04:42:55.110Z,9.10
2018-12-25T04:43:30.444Z,8.80
2018-12-25T04:44:05.935Z,8.50
2018-12-25T04:44:41.527Z,7.70
2018-12-25T04:45:16.636Z,7.70
2018-12-25T04:45:51.819Z,8.40
2018-12-25T04:46:27.428Z,8.50
2018-12-25T04:47:02.834Z,8.80
2018-12-25T04:47:38.327Z,8.20
2018-12-25T04:48:13.421Z,9.00
2018-12-25T04:48:48.739Z,9.60
2018-12-25T04:49:24.257Z,8.70
2018-12-25T04:49:59.927Z,8.70
2018-12-25T04:50:35.139Z,8.40
2018-12-25T04:51:10.822Z,9.00
2018-12-25T04:51:46.558Z,8.80
2018-12-25T04:52:22.067Z,9.70
2018-12-25T04:52:57.254Z,9.50
2018-12-25T04:53:32.652Z,9.00
2018-12-25T04:54:07.869Z,9.10
2018-12-25T04:54:43.179Z,9.30
2018-12-25T04:55:18.475Z,9.00
2018-12-25T04:55:54.902Z,9.90
2018-12-25T04:56:30.185Z,9.50
2018-12-25T04:57:05.429Z,9.80
2018-12-25T04:57:40.763Z,8.80
2018-12-25T04:58:15.848Z,9.30
2018-12-25T04:58:51.256Z,9.20
2018-12-25T04:59:26.560Z,7.90
2018-12-25T05:00:01.797Z,8.80
2018-12-25T05:00:37.073Z,8.90
2018-12-25T05:01:12.792Z,8.80
2018-12-25T05:01:47.985Z,8.70
2018-12-25T05:02:26.498Z,8.20
2018-12-25T05:03:01.810Z,8.80
2018-12-25T05:03:37.088Z,8.90
2018-12-25T05:04:12.606Z,8.40
2018-12-25T05:04:47.911Z,8.10
2018-12-25T05:05:23.208Z,8.50
2018-12-25T05:05:59.005Z,9.60
2018-12-25T05:06:34.121Z,9.70
2018-12-25T05:07:09.608Z,8.70
2018-12-25T05:07:44.916Z,7.90
2018-12-25T05:08:20.521Z,8.50
2018-12-25T05:08:55.811Z,9.30
2018-12-25T05:09:31.042Z,9.40
2018-12-25T05:10:06.769Z,8.70
2018-12-25T05:10:42.176Z,8.90
2018-12-25T05:11:17.567Z,8.70
2018-12-25T05:11:53.379Z,8.70
2018-12-25T05:12:28.489Z,9.40
2018-12-25T05:13:03.593Z,9.50
2018-12-25T05:13:38.787Z,9.70
2018-12-25T05:14:14.179Z,9.80
2018-12-25T05:14:49.405Z,9.00
2018-12-25T05:15:25.138Z,9.10
2018-12-25T05:16:00.546Z,8.90
2018-12-25T05:16:36.179Z,8.90
2018-12-25T05:17:11.584Z,8.70
2018-12-25T05:17:46.976Z,9.20
2018-12-25T05:18:22.074Z,9.60
2018-12-25T05:18:57.555Z,9.10
2018-12-25T05:19:32.961Z,8.80
2018-12-25T05:20:08.204Z,8.90
2018-12-25T05:20:43.624Z,9.10
2018-12-25T05:21:18.945Z,9.40
2018-12-25T05:21:54.522Z,9.00
2018-12-25T05:22:29.830Z,8.80
2018-12-25T05:23:05.135Z,8.80
2018-12-25T05:23:40.446Z,9.40
2018-12-25T05:24:15.745Z,9.20
2018-12-25T05:24:50.954Z,8.90
2018-12-25T05:25:26.418Z,8.90
2018-12-25T05:26:01.871Z,9.00
2018-12-25T05:26:37.467Z,8.80
2018-12-25T05:27:12.645Z,8.70
2018-12-25T05:27:47.846Z,8.80
2018-12-25T05:28:23.228Z,8.20
2018-12-25T05:28:58.845Z,9.00
2018-12-25T05:29:34.164Z,8.90
2018-12-25T05:30:09.348Z,8.90
2018-12-25T05:30:44.846Z,9.60
2018-12-25T05:31:20.446Z,9.50
2018-12-25T05:31:55.661Z,8.50
2018-12-25T05:32:30.959Z,8.70
2018-12-25T05:33:06.544Z,9.30
2018-12-25T05:33:42.049Z,8.40
2018-12-25T05:34:17.264Z,8.80
2018-12-25T05:34:52.555Z,9.10
2018-12-25T05:35:27.858Z,9.10
2018-12-25T05:36:03.140Z,8.70
2018-12-25T05:36:38.272Z,9.40
2018-12-25T05:37:13.903Z,9.90
2018-12-25T05:37:49.086Z,9.80
2018-12-25T05:38:24.207Z,9.00
2018-12-25T05:38:59.493Z,9.20
2018-12-25T05:39:34.899Z,10.40
2018-12-25T05:40:10.480Z,10.40
2018-12-25T05:40:45.715Z,10.40
2018-12-25T05:41:21.098Z,10.80
2018-12-25T05:41:56.730Z,9.30
2018-12-25T05:42:32.054Z,9.10
2018-12-25T05:43:07.621Z,9.50
2018-12-25T05:43:42.934Z,10.20
2018-12-25T05:44:18.220Z,9.70
2018-12-25T05:44:53.525Z,9.00
2018-12-25T05:45:28.910Z,10.10
2018-12-25T05:46:04.209Z,9.40
2018-12-25T05:46:39.399Z,9.10
2018-12-25T05:47:14.743Z,9.60
2018-12-25T05:47:50.312Z,10.40
2018-12-25T05:48:25.741Z,9.90
2018-12-25T05:49:01.139Z,9.80
2018-12-25T05:49:36.522Z,9.10
2018-12-25T05:50:11.719Z,9.40
2018-12-25T05:50:47.203Z,9.20
2018-12-25T05:51:22.406Z,9.50
2018-12-25T05:51:57.399Z,10.20
2018-12-25T05:52:32.834Z,9.20
2018-12-25T05:53:08.108Z,9.30
2018-12-25T05:53:43.322Z,9.10
2018-12-25T05:54:18.428Z,9.20
2018-12-25T05:54:53.922Z,8.80
2018-12-25T05:55:29.522Z,10.20
2018-12-25T05:56:04.813Z,10.10
2018-12-25T05:56:40.125Z,8.50
2018-12-25T05:57:15.405Z,9.30
2018-12-25T05:57:51.074Z,9.50
2018-12-25T05:58:26.762Z,9.10
2018-12-25T05:59:01.865Z,9.40
2018-12-25T05:59:37.273Z,9.30
2018-12-25T06:00:12.856Z,8.90
2018-12-25T06:00:48.167Z,8.40
2018-12-25T06:01:23.444Z,8.40
2018-12-25T06:01:58.758Z,8.30
2018-12-25T06:02:34.040Z,8.90
2018-12-25T06:03:09.692Z,9.10
2018-12-25T06:03:44.991Z,8.80
2018-12-25T06:04:20.703Z,8.30
2018-12-25T06:04:56.089Z,8.90
2018-12-25T06:05:31.297Z,8.50
2018-12-25T06:06:06.618Z,9.10
2018-12-25T06:06:42.022Z,7.60
2018-12-25T06:07:17.749Z,7.80
2018-12-25T06:07:53.130Z,8.20
2018-12-25T06:08:28.681Z,8.40
2018-12-25T06:09:04.267Z,8.40
2018-12-25T06:09:39.717Z,8.70
2018-12-25T06:10:15.115Z,8.40
2018-12-25T06:10:50.215Z,8.10
2018-12-25T06:11:25.614Z,8.50
2018-12-25T06:12:00.910Z,9.00
2018-12-25T06:12:36.423Z,9.20
2018-12-25T06:13:11.505Z,8.50
2018-12-25T06:13:46.747Z,8.70
2018-12-25T06:14:22.123Z,9.00
2018-12-25T06:14:57.524Z,8.90
2018-12-25T06:15:32.817Z,8.50
2018-12-25T06:16:07.932Z,7.90
2018-12-25T06:16:43.372Z,8.60
2018-12-25T06:17:18.754Z,8.50
2018-12-25T06:17:53.960Z,8.30
2018-12-25T06:18:29.353Z,9.00
2018-12-25T06:19:04.575Z,8.80
2018-12-25T06:19:39.853Z,8.10
2018-12-25T06:20:15.248Z,8.20
2018-12-25T06:20:55.033Z,8.30
2018-12-25T06:21:25.943Z,8.30
2018-12-25T06:22:01.209Z,8.50
2018-12-25T06:22:36.823Z,8.60
2018-12-25T06:23:12.149Z,7.90
2018-12-25T06:23:47.442Z,8.00
2018-12-25T06:24:22.969Z,8.20
2018-12-25T06:24:58.379Z,8.20
2018-12-25T06:25:33.574Z,8.40
2018-12-25T06:26:08.857Z,8.50
2018-12-25T06:26:44.457Z,8.40
2018-12-25T06:27:19.435Z,8.20
2018-12-25T06:27:54.443Z,9.20
2018-12-25T06:28:29.946Z,9.10
2018-12-25T06:29:05.320Z,8.00
2018-12-25T06:29:40.960Z,8.30
2018-12-25T06:30:16.148Z,8.00
2018-12-25T06:30:51.273Z,8.10
2018-12-25T06:31:26.621Z,8.10
2018-12-25T06:32:01.773Z,8.30
2018-12-25T06:32:37.057Z,8.30
2018-12-25T06:33:12.300Z,8.80
2018-12-25T06:33:47.990Z,8.90
2018-12-25T06:34:23.382Z,8.60
2018-12-25T06:34:58.845Z,8.00
2018-12-25T06:35:34.260Z,8.20
2018-12-25T06:36:09.768Z,8.70
2018-12-25T06:36:45.247Z,9.60
2018-12-25T06:37:20.954Z,9.40
2018-12-25T06:37:56.124Z,8.30
2018-12-25T06:38:31.487Z,8.50
2018-12-25T06:39:06.666Z,8.70
2018-12-25T06:39:41.971Z,8.60
2018-12-25T06:40:17.308Z,9.60
2018-12-25T06:40:52.583Z,9.30
2018-12-25T06:41:27.894Z,8.70
2018-12-25T06:42:03.278Z,9.00
2018-12-25T06:42:38.685Z,9.20
2018-12-25T06:43:14.175Z,8.80
2018-12-25T06:43:49.382Z,8.80
2018-12-25T06:44:24.783Z,8.60
2018-12-25T06:45:03.310Z,8.70
2018-12-25T06:45:38.755Z,9.30
2018-12-25T06:46:14.136Z,9.00
2018-12-25T06:46:49.742Z,8.90
2018-12-25T06:47:25.222Z,9.50
2018-12-25T06:48:00.529Z,9.20
2018-12-25T06:48:36.013Z,8.70
2018-12-25T06:49:11.017Z,8.30
2018-12-25T06:49:46.306Z,8.90
2018-12-25T06:50:21.511Z,9.00
2018-12-25T06:51:03.535Z,8.80
2018-12-25T06:51:31.944Z,8.50
2018-12-25T06:52:07.617Z,8.30
2018-12-25T06:52:43.126Z,8.30
2018-12-25T06:53:18.630Z,8.70
2018-12-25T06:53:53.937Z,8.50
2018-12-25T06:54:29.238Z,9.00
2018-12-25T06:55:04.613Z,8.70
2018-12-25T06:55:40.124Z,8.00
2018-12-25T06:56:15.476Z,7.60
2018-12-25T06:56:50.959Z,8.10
2018-12-25T06:57:26.368Z,8.60
2018-12-25T06:58:01.749Z,8.80
2018-12-25T06:58:37.053Z,8.10
2018-12-25T06:59:12.530Z,9.00
2018-12-25T06:59:47.836Z,9.20
2018-12-25T07:00:23.227Z,8.20
2018-12-25T07:00:58.621Z,8.40
2018-12-25T07:01:33.864Z,8.50
2018-12-25T07:02:09.248Z,8.50
2018-12-25T07:02:44.463Z,8.80
2018-12-25T07:03:19.645Z,8.40
2018-12-25T07:03:54.851Z,8.60
2018-12-25T07:04:30.027Z,8.70
2018-12-25T07:05:05.439Z,9.00
2018-12-25T07:05:40.924Z,9.70
2018-12-25T07:06:16.233Z,9.10
2018-12-25T07:06:51.448Z,9.00
2018-12-25T07:07:26.866Z,9.50
2018-12-25T07:08:02.352Z,8.60
2018-12-25T07:08:37.768Z,8.50
2018-12-25T07:09:13.219Z,8.50
2018-12-25T07:09:48.601Z,8.40
2018-12-25T07:10:24.012Z,8.00
2018-12-25T07:10:59.689Z,8.40
2018-12-25T07:11:35.105Z,8.30
2018-12-25T07:12:10.327Z,8.20
2018-12-25T07:12:45.543Z,7.70
2018-12-25T07:13:20.838Z,8.10
2018-12-25T07:13:55.949Z,8.40
2018-12-25T07:14:31.268Z,8.00
2018-12-25T07:15:06.660Z,9.00
2018-12-25T07:15:42.163Z,8.30
2018-12-25T07:16:17.754Z,8.30
2018-12-25T07:16:53.276Z,8.20
2018-12-25T07:17:28.527Z,8.10
2018-12-25T07:18:03.846Z,8.60
2018-12-25T07:18:39.227Z,8.30
2018-12-25T07:19:14.628Z,8.10
2018-12-25T07:19:49.852Z,8.80
2018-12-25T07:20:25.238Z,8.20
2018-12-25T07:21:00.443Z,8.00
2018-12-25T07:21:36.141Z,8.60
2018-12-25T07:22:11.580Z,8.80
2018-12-25T07:22:46.768Z,8.90
2018-12-25T07:23:22.068Z,8.70
2018-12-25T07:23:57.244Z,8.70
2018-12-25T07:24:32.354Z,8.20
2018-12-25T07:25:07.724Z,9.00
2018-12-25T07:25:43.226Z,8.20
2018-12-25T07:26:18.735Z,8.30
2018-12-25T07:26:53.610Z,9.40
2018-12-25T07:27:29.329Z,8.50
2018-12-25T07:28:04.558Z,7.80
2018-12-25T07:28:40.271Z,8.30
2018-12-25T07:29:15.562Z,8.60
2018-12-25T07:29:51.081Z,8.50
2018-12-25T07:30:26.355Z,9.20
2018-12-25T07:31:01.677Z,8.70
2018-12-25T07:31:37.083Z,8.70
2018-12-25T07:32:12.358Z,9.20
2018-12-25T07:32:47.766Z,8.70
2018-12-25T07:33:23.216Z,8.10
2018-12-25T07:33:58.233Z,9.00
2018-12-25T07:34:34.010Z,9.50
2018-12-25T07:35:09.427Z,8.60
2018-12-25T07:35:44.809Z,8.90
2018-12-25T07:36:20.228Z,9.30
2018-12-25T07:36:55.433Z,8.60
2018-12-25T07:37:30.425Z,8.20
2018-12-25T07:38:05.738Z,8.70
2018-12-25T07:38:41.055Z,8.40
2018-12-25T07:39:16.672Z,8.40
2018-12-25T07:39:52.259Z,9.00
2018-12-25T07:40:27.668Z,9.10
2018-12-25T07:41:03.048Z,9.00
2018-12-25T07:41:38.853Z,8.90
2018-12-25T07:42:14.267Z,8.60
2018-12-25T07:42:49.348Z,8.10
2018-12-25T07:43:24.654Z,8.30
2018-12-25T07:44:00.271Z,8.50
2018-12-25T07:44:36.087Z,9.20
2018-12-25T07:45:11.480Z,9.60
2018-12-25T07:45:46.891Z,9.20
2018-12-25T07:46:22.170Z,8.60
2018-12-25T07:46:57.567Z,8.30
2018-12-25T07:47:32.779Z,8.30
2018-12-25T07:48:08.262Z,8.50
2018-12-25T07:48:43.480Z,8.80
2018-12-25T07:49:19.100Z,9.40
2018-12-25T07:49:54.428Z,8.80
2018-12-25T07:50:29.716Z,8.30
2018-12-25T07:51:05.023Z,9.00